createdAt,value
2024-04-19T00:01:52.310Z,8.68
2024-04-19T00:04:24.988Z,9.23
2024-04-19T00:06:52.257Z,9.57
2024-04-19T00:09:22.084Z,11.50
2024-04-19T00:11:49.224Z,10.07
2024-04-19T00:14:18.955Z,10.30
2024-04-19T00:16:46.106Z,11.18
2024-04-19T00:19:16.908Z,9.52
2024-04-19T00:21:46.712Z,10.27
2024-04-19T00:24:16.566Z,9.38
2024-04-19T00:26:43.714Z,8.60
2024-04-19T00:29:13.417Z,7.63
2024-04-19T00:31:40.507Z,6.97
2024-04-19T00:34:10.650Z,7.60
2024-04-19T00:36:37.835Z,8.93
2024-04-19T00:39:10.129Z,8.10
2024-04-19T00:41:37.267Z,8.30
2024-04-19T00:44:07.063Z,8.63
2024-04-19T00:46:34.580Z,6.75
2024-04-19T00:49:04.538Z,9.18
2024-04-19T00:51:33.255Z,9.95
2024-04-19T00:54:03.587Z,7.28
2024-04-19T00:56:33.812Z,7.65
2024-04-19T00:59:03.688Z,9.98
2024-04-19T01:01:31.161Z,9.55
2024-04-19T01:04:01.174Z,8.23
2024-04-19T01:06:29.411Z,6.35
2024-04-19T01:08:59.207Z,8.32
2024-04-19T01:11:26.423Z,6.47
2024-04-19T01:13:59.182Z,6.25
2024-04-19T01:16:26.351Z,6.75
2024-04-19T01:18:56.202Z,8.48
2024-04-19T01:21:23.819Z,6.88
2024-04-19T01:24:02.327Z,8.45
2024-04-19T01:26:32.580Z,5.93
2024-04-19T01:29:02.336Z,6.35
2024-04-19T01:31:29.545Z,7.10
2024-04-19T01:33:59.365Z,6.65
2024-04-19T01:36:28.641Z,6.80
2024-04-19T01:38:58.822Z,8.20
2024-04-19T01:41:26.274Z,5.78
2024-04-19T01:43:59.675Z,6.30
2024-04-19T01:46:26.754Z,8.10
2024-04-19T01:48:56.549Z,5.90
2024-04-19T01:51:23.762Z,7.93
2024-04-19T01:53:53.491Z,6.72
2024-04-19T01:56:20.622Z,7.68
2024-04-19T01:58:50.451Z,5.72
2024-04-19T02:01:20.204Z,7.93
2024-04-19T02:03:49.973Z,7.18
2024-04-19T02:06:17.365Z,5.28
2024-04-19T02:08:47.074Z,6.78
2024-04-19T02:11:14.223Z,10.13
2024-04-19T02:13:43.924Z,6.75
2024-04-19T02:16:10.997Z,10.55
2024-04-19T02:18:43.445Z,6.97
2024-04-19T02:21:10.736Z,10.18
2024-04-19T02:23:49.796Z,8.65
2024-04-19T02:26:16.900Z,6.95
2024-04-19T02:29:02.226Z,13.48
2024-04-19T02:31:32.176Z,13.30
2024-04-19T02:34:04.721Z,10.63
2024-04-19T02:36:34.573Z,6.75
2024-04-19T02:39:04.378Z,6.43
2024-04-19T02:41:34.093Z,8.85
2024-04-19T02:44:03.863Z,6.95
2024-04-19T02:46:33.679Z,8.13
2024-04-19T02:49:06.076Z,6.50
2024-04-19T02:51:35.792Z,7.50
2024-04-19T02:54:05.495Z,7.25
2024-04-19T02:56:35.219Z,6.97
2024-04-19T02:59:05.029Z,7.43
2024-04-19T03:01:36.940Z,6.32
2024-04-19T03:04:09.876Z,7.57
2024-04-19T03:09:09.432Z,8.98
2024-04-19T03:11:39.189Z,7.75
2024-04-19T03:14:09.006Z,8.95
2024-04-19T03:16:38.717Z,8.85
2024-04-19T03:19:11.072Z,10.35
2024-04-19T03:21:40.859Z,8.63
2024-04-19T03:24:10.723Z,6.28
2024-04-19T03:26:40.549Z,8.65
2024-04-19T03:29:10.353Z,8.25
2024-04-19T03:31:40.039Z,8.63
2024-04-19T03:34:12.487Z,7.45
2024-04-19T03:36:42.381Z,8.70
2024-04-19T03:39:12.427Z,10.13
2024-04-19T03:41:44.207Z,8.40
2024-04-19T03:44:29.952Z,8.75
2024-04-19T03:46:59.742Z,7.30
2024-04-19T03:49:32.051Z,10.38
2024-04-19T03:52:02.060Z,8.20
2024-04-19T03:54:31.796Z,10.13
2024-04-19T03:57:01.634Z,8.80
2024-04-19T03:59:31.311Z,9.65
2024-04-19T04:01:58.661Z,9.63
2024-04-19T04:04:31.062Z,7.82
2024-04-19T04:07:02.240Z,10.82
2024-04-19T04:09:32.190Z,8.68
2024-04-19T04:12:02.037Z,8.77
2024-04-19T04:14:31.779Z,8.05
2024-04-19T04:17:01.619Z,10.70
2024-04-19T04:19:34.042Z,31.38
2024-04-19T04:22:03.902Z,12.48
2024-04-19T04:24:33.934Z,8.43
2024-04-19T04:27:03.736Z,10.55
2024-04-19T04:29:33.569Z,9.20
2024-04-19T04:32:04.103Z,10.07
2024-04-19T04:34:36.541Z,10.13
2024-04-19T04:37:06.371Z,9.27
2024-04-19T04:39:36.228Z,8.43
2024-04-19T04:42:06.178Z,9.00
2024-04-19T04:44:36.217Z,8.40
2024-04-19T04:47:07.087Z,9.48
2024-04-19T04:49:40.217Z,10.27
2024-04-19T04:54:39.853Z,10.68
2024-04-19T04:57:09.748Z,15.52
2024-04-19T04:59:39.608Z,10.52
2024-04-19T05:02:09.492Z,13.93
2024-04-19T05:04:46.479Z,13.95
2024-04-19T05:07:16.296Z,10.85
2024-04-19T05:09:46.381Z,8.60
2024-04-19T05:12:16.280Z,10.98
2024-04-19T05:14:46.036Z,8.85
2024-04-19T05:17:16.011Z,9.48
2024-04-19T05:19:48.565Z,7.03
2024-04-19T05:22:18.660Z,7.78
2024-04-19T05:24:49.635Z,10.43
2024-04-19T05:27:19.531Z,11.18
2024-04-19T05:29:49.439Z,10.15
2024-04-19T05:32:19.365Z,9.52
2024-04-19T05:34:51.764Z,9.40
2024-04-19T05:37:22.050Z,13.07
2024-04-19T05:39:51.998Z,9.82
2024-04-19T05:42:21.981Z,11.45
2024-04-19T05:44:51.804Z,10.55
2024-04-19T05:47:21.687Z,10.23
2024-04-19T05:49:54.143Z,9.55
2024-04-19T05:52:23.934Z,9.35
2024-04-19T05:54:53.802Z,9.70
2024-04-19T05:57:23.831Z,12.85
2024-04-19T05:59:50.930Z,12.02
2024-04-19T06:02:21.078Z,9.77
2024-04-19T06:04:53.445Z,10.07
2024-04-19T06:07:25.321Z,11.45
2024-04-19T06:09:55.171Z,10.27
2024-04-19T06:12:24.881Z,9.02
2024-04-19T06:14:54.613Z,10.07
2024-04-19T06:17:24.375Z,11.95
2024-04-19T06:19:56.908Z,10.70
2024-04-19T06:22:26.888Z,10.10
2024-04-19T06:24:57.607Z,12.23
2024-04-19T06:27:27.438Z,9.77
2024-04-19T06:29:57.187Z,9.98
2024-04-19T06:32:26.924Z,10.80
2024-04-19T06:34:59.311Z,9.85
2024-04-19T06:37:29.132Z,9.38
2024-04-19T06:40:05.520Z,10.77
2024-04-19T06:42:38.119Z,12.40
2024-04-19T06:45:08.520Z,10.60
2024-04-19T06:47:38.595Z,10.38
2024-04-19T06:50:11.185Z,9.23
2024-04-19T06:52:41.015Z,9.13
2024-04-19T06:55:12.168Z,9.38
2024-04-19T06:57:41.913Z,9.45
2024-04-19T07:00:22.204Z,9.90
2024-04-19T07:03:03.941Z,10.45
2024-04-19T07:05:37.564Z,8.88
2024-04-19T07:08:08.140Z,11.02
2024-04-19T07:10:41.444Z,8.23
2024-04-19T07:13:11.372Z,7.80
2024-04-19T07:15:41.130Z,11.07
2024-04-19T07:18:10.961Z,8.48
2024-04-19T07:20:43.339Z,10.38
2024-04-19T07:23:13.228Z,9.70
2024-04-19T07:25:43.381Z,8.80
2024-04-19T07:28:13.321Z,8.73
2024-04-19T07:30:43.758Z,8.55
2024-04-19T07:33:14.009Z,7.43
2024-04-19T07:35:46.654Z,8.15
2024-04-19T07:38:16.749Z,8.57
2024-04-19T07:40:47.128Z,6.35
2024-04-19T07:43:16.970Z,9.38
2024-04-19T07:45:47.755Z,7.72
2024-04-19T07:48:18.021Z,8.82
2024-04-19T07:50:51.145Z,8.52
2024-04-19T07:55:55.636Z,7.03
2024-04-19T07:58:27.017Z,9.15
2024-04-19T08:00:58.062Z,9.65
2024-04-19T08:03:28.037Z,7.60
2024-04-19T08:06:00.541Z,6.55
2024-04-19T08:08:30.387Z,8.35
2024-04-19T08:11:00.585Z,5.47
2024-04-19T08:13:30.334Z,6.68
2024-04-19T08:16:00.232Z,6.28
2024-04-19T08:18:30.104Z,5.88
2024-04-19T08:21:02.522Z,7.78
2024-04-19T08:23:32.200Z,7.65
2024-04-19T08:26:02.391Z,7.30
2024-04-19T08:28:32.141Z,6.80
2024-04-19T08:31:04.169Z,6.07
2024-04-19T08:33:34.773Z,10.07
2024-04-19T08:36:07.818Z,7.90
2024-04-19T08:41:10.706Z,6.75
2024-04-19T08:46:12.541Z,6.25
2024-04-19T08:48:45.001Z,8.10
2024-04-19T08:51:26.425Z,6.65
2024-04-19T08:54:03.836Z,6.60
2024-04-19T08:56:34.348Z,6.78
2024-04-19T08:59:04.977Z,8.00
2024-04-19T09:01:34.908Z,8.55
2024-04-19T09:04:04.784Z,8.85
2024-04-19T09:06:37.627Z,7.30
2024-04-19T09:09:08.106Z,5.93
2024-04-19T09:11:42.556Z,8.85
2024-04-19T09:14:12.342Z,7.53
2024-04-19T09:16:42.146Z,9.45
2024-04-19T09:19:12.118Z,11.80
2024-04-19T09:21:44.562Z,9.32
2024-04-19T09:24:14.777Z,11.50
2024-04-19T09:26:44.696Z,9.73
2024-04-19T09:29:14.471Z,8.35
2024-04-19T09:31:46.544Z,8.32
2024-04-19T09:34:19.336Z,9.85
2024-04-19T09:36:52.646Z,7.50
2024-04-19T09:39:22.572Z,9.60
2024-04-19T09:41:52.395Z,9.95
2024-04-19T09:44:26.546Z,10.48
2024-04-19T09:47:00.604Z,9.55
2024-04-19T09:49:34.002Z,7.68
2024-04-19T09:52:08.102Z,7.82
2024-04-19T09:54:41.828Z,5.40
2024-04-19T09:57:12.533Z,6.85
2024-04-19T09:59:43.140Z,7.68
2024-04-19T10:02:20.781Z,8.05
2024-04-19T10:04:58.937Z,6.22
2024-04-19T10:07:33.048Z,5.75
2024-04-19T10:10:04.209Z,8.80
2024-04-19T10:12:35.386Z,7.47
2024-04-19T10:15:06.134Z,10.25
2024-04-19T10:17:36.469Z,5.20
2024-04-19T10:20:06.653Z,5.75
2024-04-19T10:22:39.136Z,5.65
2024-04-19T10:25:09.948Z,4.75
2024-04-19T10:27:39.721Z,6.15
2024-04-19T10:30:16.318Z,10.35
2024-04-19T10:32:56.074Z,7.75
2024-04-19T10:35:25.830Z,8.05
2024-04-19T10:37:59.892Z,5.60
2024-04-19T10:40:30.839Z,5.57
2024-04-19T10:43:06.993Z,6.05
2024-04-19T10:45:37.762Z,6.53
2024-04-19T10:48:08.995Z,5.00
2024-04-19T10:50:38.959Z,5.30
2024-04-19T10:53:11.381Z,4.57
2024-04-19T10:55:42.092Z,5.57
2024-04-19T10:58:11.998Z,5.40
2024-04-19T11:00:45.701Z,7.43
2024-04-19T11:03:20.170Z,5.78
2024-04-19T11:05:50.797Z,7.82
2024-04-19T11:08:25.868Z,5.43
2024-04-19T11:10:57.172Z,6.28
2024-04-19T11:13:26.983Z,5.60
2024-04-19T11:15:58.679Z,6.28
2024-04-19T11:18:29.842Z,6.40
2024-04-19T11:21:07.724Z,9.20
2024-04-19T11:23:44.322Z,8.57
2024-04-19T11:26:14.239Z,8.75
2024-04-19T11:28:48.408Z,6.82
2024-04-19T11:31:19.244Z,5.47
2024-04-19T11:33:49.112Z,5.40
2024-04-19T11:36:19.079Z,5.28
2024-04-19T11:38:53.886Z,4.30
2024-04-19T11:41:23.922Z,3.35
2024-04-19T11:43:53.876Z,4.75
2024-04-19T11:46:25.949Z,4.00
2024-04-19T11:48:55.703Z,4.88
2024-04-19T11:51:25.532Z,6.65
2024-04-19T11:53:58.192Z,3.90
2024-04-19T11:56:28.056Z,3.72
2024-04-19T11:58:57.839Z,3.83
2024-04-19T12:01:28.141Z,3.20
2024-04-19T12:03:58.428Z,3.20
2024-04-19T12:06:28.541Z,3.72
2024-04-19T12:09:00.997Z,3.58
2024-04-19T12:11:30.701Z,5.82
2024-04-19T12:14:50.838Z,3.92
2024-04-19T12:16:56.190Z,2.78
2024-04-19T12:19:31.772Z,3.80
2024-04-19T12:22:03.196Z,3.55
2024-04-19T12:24:39.205Z,3.50
2024-04-19T12:27:10.338Z,3.58
2024-04-19T12:29:44.741Z,5.82
2024-04-19T12:32:14.788Z,4.68
2024-04-19T12:34:44.727Z,4.32
2024-04-19T12:37:16.428Z,3.33
2024-04-19T12:39:48.821Z,4.30
2024-04-19T12:42:18.811Z,6.15
2024-04-19T12:44:49.594Z,6.85
2024-04-19T12:47:20.309Z,6.13
2024-04-19T12:49:50.280Z,6.25
2024-04-19T12:52:20.423Z,4.47
2024-04-19T12:54:52.865Z,3.55
2024-04-19T12:57:24.726Z,4.07
2024-04-19T12:59:54.538Z,4.65
2024-04-19T13:02:26.000Z,4.10
2024-04-19T13:04:55.824Z,5.28
2024-04-19T13:07:25.750Z,6.07
2024-04-19T13:09:58.276Z,5.68
2024-04-19T13:12:28.192Z,5.85
2024-04-19T13:14:57.968Z,4.43
2024-04-19T13:17:28.345Z,4.47
2024-04-19T13:19:58.060Z,4.88
2024-04-19T13:22:27.846Z,5.82
2024-04-19T13:25:00.581Z,5.15
2024-04-19T13:27:30.706Z,4.57
2024-04-19T13:30:00.651Z,3.60
2024-04-19T13:32:30.492Z,3.90
2024-04-19T13:35:00.877Z,4.90
2024-04-19T13:37:30.632Z,3.67
2024-04-19T13:40:03.240Z,3.88
2024-04-19T13:42:33.101Z,8.13
2024-04-19T13:45:02.828Z,3.63
2024-04-19T13:47:32.666Z,3.38
2024-04-19T13:50:06.216Z,3.20
2024-04-19T13:52:36.048Z,4.38
2024-04-19T13:55:09.778Z,3.38
2024-04-19T13:57:41.519Z,2.28
2024-04-19T14:00:12.846Z,3.03
2024-04-19T14:02:42.655Z,3.47
2024-04-19T14:05:12.460Z,5.47
2024-04-19T14:07:42.224Z,3.15
2024-04-19T14:10:14.673Z,2.80
2024-04-19T14:12:44.505Z,3.72
2024-04-19T14:15:14.242Z,4.90
2024-04-19T14:17:44.003Z,3.13
2024-04-19T14:20:13.929Z,3.20
2024-04-19T14:22:43.737Z,4.80
2024-04-19T14:25:16.294Z,4.93
2024-04-19T14:27:47.968Z,5.30
2024-04-19T14:30:18.343Z,4.95
2024-04-19T14:32:48.290Z,4.63
2024-04-19T14:35:18.367Z,5.38
2024-04-19T14:37:48.047Z,9.40
2024-04-19T14:40:20.594Z,6.00
2024-04-19T14:42:50.757Z,4.65
2024-04-19T14:45:20.966Z,5.63
2024-04-19T14:47:51.460Z,7.25
2024-04-19T14:50:21.958Z,6.60
2024-04-19T14:52:56.795Z,5.40
2024-04-19T14:55:36.724Z,8.55
2024-04-19T14:58:06.633Z,6.18
2024-04-19T15:00:37.104Z,8.48
2024-04-19T15:03:07.546Z,9.82
2024-04-19T15:05:37.265Z,9.30
2024-04-19T15:08:10.218Z,7.63
2024-04-19T15:10:42.624Z,9.63
2024-04-19T15:13:12.318Z,4.68
2024-04-19T15:15:42.202Z,5.78
2024-04-19T15:18:11.998Z,4.57
2024-04-19T15:20:41.745Z,3.33
2024-04-19T15:23:12.160Z,2.67
2024-04-19T15:25:44.640Z,5.63
2024-04-19T15:28:14.407Z,4.00
2024-04-19T15:30:44.435Z,3.92
2024-04-19T15:35:45.766Z,2.67
2024-04-19T15:38:15.537Z,2.13
2024-04-19T15:40:48.255Z,4.28
2024-04-19T15:43:20.666Z,1.85
2024-04-19T15:45:50.943Z,5.97
2024-04-19T15:48:23.259Z,3.75
2024-04-19T15:50:54.996Z,3.45
2024-04-19T15:53:30.927Z,2.55
2024-04-19T15:56:03.422Z,1.58
2024-04-19T15:58:38.678Z,2.60
2024-04-19T16:01:11.827Z,1.27
2024-04-19T16:03:42.627Z,2.53
2024-04-19T16:06:12.585Z,2.88
2024-04-19T16:08:42.824Z,2.30
2024-04-19T16:11:21.751Z,3.35
2024-04-19T16:13:51.483Z,6.68
2024-04-19T16:16:21.355Z,5.18
2024-04-19T16:18:51.260Z,6.63
2024-04-19T16:21:21.444Z,3.67
2024-04-19T16:23:51.337Z,2.92
2024-04-19T16:26:23.844Z,1.77
2024-04-19T16:28:53.984Z,2.20
2024-04-19T16:31:23.791Z,2.22
2024-04-19T16:33:53.840Z,2.55
2024-04-19T16:36:23.837Z,4.03
2024-04-19T16:38:55.729Z,2.58
2024-04-19T16:41:28.688Z,2.10
2024-04-19T16:44:02.804Z,3.33
2024-04-19T16:46:32.654Z,3.50
2024-04-19T16:49:03.119Z,4.18
2024-04-19T16:51:33.052Z,3.38
2024-04-19T16:54:02.928Z,1.70
2024-04-19T16:56:35.534Z,2.03
2024-04-19T16:59:05.932Z,6.10
2024-04-19T17:01:36.031Z,6.65
2024-04-19T17:04:06.218Z,2.88
2024-04-19T17:06:37.577Z,4.25
2024-04-19T17:09:07.597Z,6.38
2024-04-19T17:11:43.484Z,2.30
2024-04-19T17:14:13.769Z,3.40
2024-04-19T17:16:44.650Z,3.70
2024-04-19T17:19:14.425Z,3.45
2024-04-19T17:21:47.078Z,3.72
2024-04-19T17:24:17.192Z,3.28
2024-04-19T17:26:49.738Z,3.80
2024-04-19T17:29:20.914Z,4.25
2024-04-19T17:31:52.168Z,5.80
2024-04-19T17:34:22.715Z,3.72
2024-04-19T17:36:54.475Z,4.80
2024-04-19T17:39:24.426Z,3.17
2024-04-19T17:41:59.058Z,4.88
2024-04-19T17:44:34.742Z,5.07
2024-04-19T17:47:06.434Z,8.82
2024-04-19T17:49:36.490Z,8.27
2024-04-19T17:52:08.806Z,4.70
2024-04-19T17:54:38.715Z,6.97
2024-04-19T17:57:15.455Z,5.82
2024-04-19T17:59:45.521Z,8.55
2024-04-19T18:02:15.582Z,3.30
2024-04-19T18:04:45.913Z,4.43
2024-04-19T18:07:18.177Z,2.80
2024-04-19T18:09:51.282Z,2.57
2024-04-19T18:14:54.145Z,5.95
2024-04-19T18:17:24.117Z,3.47
2024-04-19T18:19:55.710Z,8.07
2024-04-19T18:22:25.668Z,7.53
2024-04-19T18:24:55.609Z,4.90
2024-04-19T18:27:29.006Z,7.28
2024-04-19T18:30:00.444Z,3.67
2024-04-19T18:32:30.437Z,6.22
2024-04-19T18:35:02.804Z,3.00
2024-04-19T18:37:32.981Z,5.88
2024-04-19T18:40:03.759Z,3.72
2024-04-19T18:42:36.203Z,4.45
2024-04-19T18:45:08.516Z,5.00
2024-04-19T18:47:40.399Z,5.78
2024-04-19T18:50:11.225Z,9.98
2024-04-19T18:52:41.881Z,6.22
2024-04-19T18:55:17.650Z,7.07
2024-04-19T18:57:50.803Z,5.80
2024-04-19T19:00:21.297Z,7.75
2024-04-19T19:02:54.080Z,9.85
2024-04-19T19:05:25.078Z,15.05
2024-04-19T19:08:03.768Z,18.40
2024-04-19T19:10:40.531Z,11.00
2024-04-19T19:13:14.417Z,9.35
2024-04-19T19:15:48.996Z,9.60
2024-04-19T19:18:19.019Z,8.45
2024-04-19T19:20:48.906Z,6.47
2024-04-19T19:23:18.991Z,4.60
2024-04-19T19:25:49.182Z,6.05
2024-04-19T19:28:21.567Z,6.75
2024-04-19T19:30:55.820Z,5.63
2024-04-19T19:33:25.691Z,5.60
2024-04-19T19:36:01.510Z,9.32
2024-04-19T19:38:34.498Z,8.52
2024-04-19T19:43:37.868Z,6.45
2024-04-19T19:46:12.331Z,5.22
2024-04-19T19:48:42.703Z,8.93
2024-04-19T19:51:12.644Z,7.50
2024-04-19T19:53:42.717Z,5.88
2024-04-19T19:56:16.873Z,10.30
2024-04-19T19:58:52.125Z,13.80
2024-04-19T20:01:38.247Z,10.18
2024-04-19T20:04:26.433Z,8.85
2024-04-19T20:07:02.108Z,13.85
2024-04-19T20:09:32.318Z,21.80
2024-04-19T20:12:02.206Z,29.70
2024-04-19T20:14:34.600Z,14.77
2024-04-19T20:17:04.658Z,12.43
2024-04-19T20:19:34.642Z,24.92
2024-04-19T20:22:04.906Z,16.98
2024-04-19T20:24:34.785Z,16.15
2024-04-19T20:27:04.907Z,14.07
2024-04-19T20:29:37.404Z,11.55
2024-04-19T20:32:10.404Z,11.27
2024-04-19T20:37:11.210Z,12.75
2024-04-19T20:39:41.647Z,10.27
2024-04-19T20:42:11.474Z,9.45
2024-04-19T20:44:45.090Z,6.40
2024-04-19T20:47:15.407Z,7.35
2024-04-19T20:49:46.138Z,9.48
2024-04-19T20:52:18.786Z,7.20
2024-04-19T20:54:49.702Z,7.43
2024-04-19T20:57:20.015Z,7.47
2024-04-19T20:59:53.348Z,8.32
2024-04-19T21:02:24.277Z,9.50
2024-04-19T21:04:57.195Z,10.05
2024-04-19T21:07:27.031Z,9.45
2024-04-19T21:10:00.536Z,6.47
2024-04-19T21:12:32.429Z,7.70
2024-04-19T21:15:04.778Z,7.15
2024-04-19T21:17:34.937Z,11.10
2024-04-19T21:20:04.861Z,11.95
2024-04-19T21:22:34.604Z,9.70
2024-04-19T21:25:05.606Z,9.52
2024-04-19T21:27:36.030Z,10.27
2024-04-19T21:30:10.000Z,10.05
2024-04-19T21:32:40.146Z,9.27
2024-04-19T21:35:10.125Z,9.20
2024-04-19T21:37:39.905Z,6.00
2024-04-19T21:40:13.621Z,9.48
2024-04-19T21:42:43.840Z,10.00
2024-04-19T21:45:17.391Z,7.65
2024-04-19T21:47:48.367Z,7.15
2024-04-19T21:50:20.425Z,16.05
2024-04-19T21:52:50.324Z,9.60
2024-04-19T21:55:20.221Z,8.27
2024-04-19T21:57:50.616Z,12.73
2024-04-19T22:00:23.460Z,10.80
2024-04-19T22:02:53.327Z,8.57
2024-04-19T22:05:23.070Z,8.02
2024-04-19T22:07:52.850Z,16.95
2024-04-19T22:10:23.412Z,7.18
2024-04-19T22:12:53.548Z,10.02
2024-04-19T22:15:26.138Z,7.65
2024-04-19T22:17:55.957Z,6.20
2024-04-19T22:20:25.698Z,6.97
2024-04-19T22:22:55.365Z,6.22
2024-04-19T22:25:25.338Z,9.75
2024-04-19T22:27:55.205Z,5.95
2024-04-19T22:30:27.810Z,7.00
2024-04-19T22:32:57.619Z,3.75
2024-04-19T22:35:27.616Z,11.40
2024-04-19T22:37:57.342Z,6.65
2024-04-19T22:40:27.087Z,8.00
2024-04-19T22:42:57.999Z,7.05
2024-04-19T22:45:30.699Z,4.97
2024-04-19T22:48:01.772Z,5.72
2024-04-19T22:50:31.519Z,8.02
2024-04-19T22:53:01.253Z,4.72
2024-04-19T22:55:30.935Z,13.05
2024-04-19T22:58:03.912Z,10.85
2024-04-19T23:00:40.767Z,7.32
2024-04-19T23:03:10.871Z,6.75
2024-04-19T23:05:41.042Z,10.48
2024-04-19T23:08:11.249Z,9.43
2024-04-19T23:10:41.324Z,8.23
2024-04-19T23:13:11.111Z,8.15
2024-04-19T23:15:43.562Z,6.13
2024-04-19T23:18:13.484Z,7.63
2024-04-19T23:20:43.401Z,6.47
2024-04-19T23:23:13.117Z,8.40
2024-04-19T23:25:43.118Z,7.07
2024-04-19T23:28:12.842Z,4.90
2024-04-19T23:30:46.334Z,8.05
2024-04-19T23:33:16.263Z,8.32
2024-04-19T23:35:46.064Z,5.75
2024-04-19T23:38:15.724Z,7.65
2024-04-19T23:40:45.708Z,3.13
2024-04-19T23:43:17.356Z,4.55
2024-04-19T23:45:50.355Z,6.90
2024-04-19T23:50:50.160Z,4.50
2024-04-19T23:53:20.039Z,3.88
2024-04-19T23:55:49.819Z,7.43
2024-04-19T23:58:19.591Z,6.53
